createdAt,value
2022-09-23T00:01:08.084Z,71.78
2022-09-23T00:03:36.555Z,71.11
2022-09-23T00:06:08.656Z,72.07
2022-09-23T00:08:35.288Z,70.90
2022-09-23T00:11:26.209Z,70.99
2022-09-23T00:13:56.194Z,72.00
2022-09-23T00:16:31.693Z,71.63
2022-09-23T00:18:58.352Z,70.11
2022-09-23T00:21:25.383Z,69.35
2022-09-23T00:23:52.174Z,70.19
2022-09-23T00:26:22.200Z,70.49
2022-09-23T00:28:49.865Z,68.81
2022-09-23T00:31:25.893Z,68.35
2022-09-23T00:33:54.615Z,69.80
2022-09-23T00:36:21.226Z,68.99
2022-09-23T00:38:47.847Z,71.71
2022-09-23T00:41:15.083Z,72.72
2022-09-23T00:43:56.733Z,71.37
2022-09-23T00:46:28.707Z,69.89
2022-09-23T00:49:03.069Z,69.27
2022-09-23T00:51:39.747Z,70.71
2022-09-23T00:54:07.017Z,71.64
2022-09-23T00:56:36.905Z,71.42
2022-09-23T00:59:06.629Z,72.45
2022-09-23T01:01:33.690Z,74.17
2022-09-23T01:04:00.747Z,73.15
2022-09-23T01:06:27.331Z,75.69
2022-09-23T01:08:53.911Z,76.55
2022-09-23T01:11:58.322Z,76.37
2022-09-23T01:14:41.526Z,75.94
2022-09-23T01:17:16.384Z,75.29
2022-09-23T01:19:57.965Z,73.16
2022-09-23T01:22:43.440Z,71.93
2022-09-23T01:25:36.359Z,71.86
2022-09-23T01:28:47.639Z,73.06
2022-09-23T01:31:28.386Z,73.22
2022-09-23T01:34:03.020Z,72.84
2022-09-23T01:36:46.550Z,71.23
2022-09-23T01:39:21.319Z,70.24
2022-09-23T01:42:12.725Z,69.33
2022-09-23T01:45:00.970Z,67.88
2022-09-23T01:47:37.318Z,70.45
2022-09-23T01:50:11.086Z,71.91
2022-09-23T01:52:45.270Z,76.30
2022-09-23T01:55:20.746Z,73.22
2022-09-23T01:57:58.771Z,70.03
2022-09-23T02:00:31.898Z,69.56
2022-09-23T02:03:13.248Z,70.12
2022-09-23T02:05:50.997Z,69.56
2022-09-23T02:08:26.133Z,68.70
2022-09-23T02:11:02.545Z,71.66
2022-09-23T02:13:39.423Z,72.79
2022-09-23T02:16:19.020Z,73.23
2022-09-23T02:19:15.471Z,73.72
2022-09-23T02:21:49.078Z,74.07
2022-09-23T02:24:22.979Z,73.00
2022-09-23T02:26:58.537Z,74.07
2022-09-23T02:29:50.885Z,73.32
2022-09-23T02:32:36.135Z,73.87
2022-09-23T02:35:23.858Z,76.25
2022-09-23T02:38:00.767Z,76.55
2022-09-23T02:40:46.527Z,75.39
2022-09-23T02:43:22.144Z,73.45
2022-09-23T02:45:52.114Z,75.92
2022-09-23T02:48:26.924Z,74.85
2022-09-23T02:50:54.167Z,76.48
2022-09-23T02:53:24.157Z,74.01
2022-09-23T02:55:50.799Z,72.80
2022-09-23T02:58:17.900Z,74.03
2022-09-23T03:01:05.631Z,74.18
2022-09-23T03:03:45.921Z,75.94
2022-09-23T03:06:41.421Z,76.80
2022-09-23T03:09:17.105Z,77.98
2022-09-23T03:11:52.955Z,80.85
2022-09-23T03:14:32.868Z,82.29
2022-09-23T03:16:59.397Z,81.18
2022-09-23T03:19:38.254Z,79.62
2022-09-23T03:22:13.904Z,77.05
2022-09-23T03:24:45.057Z,75.29
2022-09-23T03:27:21.774Z,75.71
2022-09-23T03:29:52.156Z,76.28
2022-09-23T03:32:23.573Z,76.29
2022-09-23T03:34:54.196Z,79.06
2022-09-23T03:37:40.190Z,77.85
2022-09-23T03:40:15.421Z,74.85
2022-09-23T03:42:42.812Z,76.55
2022-09-23T03:45:17.761Z,77.68
2022-09-23T03:47:44.970Z,76.30
2022-09-23T03:50:13.263Z,75.87
2022-09-23T03:52:40.673Z,76.29
2022-09-23T03:55:07.784Z,78.34
2022-09-23T03:57:35.013Z,79.43
2022-09-23T04:00:02.385Z,77.81
2022-09-23T04:02:29.088Z,80.36
2022-09-23T04:04:55.718Z,81.12
2022-09-23T04:07:22.307Z,79.44
2022-09-23T04:09:48.937Z,78.56
2022-09-23T04:12:16.748Z,77.82
2022-09-23T04:14:44.135Z,78.87
2022-09-23T04:17:11.443Z,80.48
2022-09-23T04:19:38.124Z,78.49
2022-09-23T04:22:05.608Z,77.08
2022-09-23T04:24:32.197Z,76.66
2022-09-23T04:26:58.822Z,78.87
2022-09-23T04:29:26.810Z,78.57
2022-09-23T04:31:53.788Z,78.52
2022-09-23T04:34:21.272Z,74.88
2022-09-23T04:36:49.534Z,74.83
2022-09-23T04:39:17.025Z,76.57
2022-09-23T04:41:44.826Z,78.80
2022-09-23T04:44:15.803Z,78.48
2022-09-23T04:46:43.550Z,75.86
2022-09-23T04:49:10.241Z,76.54
2022-09-23T04:51:36.861Z,76.64
2022-09-23T04:54:03.506Z,77.13
2022-09-23T04:56:31.100Z,78.53
2022-09-23T04:58:57.823Z,78.67
2022-09-23T05:01:27.404Z,79.60
2022-09-23T05:03:57.469Z,80.74
2022-09-23T05:06:24.656Z,82.35
2022-09-23T05:08:54.092Z,80.87
2022-09-23T05:11:21.378Z,82.34
2022-09-23T05:13:50.146Z,82.25
2022-09-23T05:16:18.042Z,82.09
2022-09-23T05:18:46.502Z,81.66
2022-09-23T05:21:16.461Z,80.67
2022-09-23T05:23:50.758Z,77.34
2022-09-23T05:26:17.567Z,77.17
2022-09-23T05:28:44.233Z,75.94
2022-09-23T05:31:19.426Z,78.23
2022-09-23T05:33:49.933Z,77.51
2022-09-23T05:36:16.534Z,76.33
2022-09-23T05:38:43.449Z,77.53
2022-09-23T05:41:13.236Z,76.04
2022-09-23T05:43:40.514Z,74.19
2022-09-23T05:46:14.178Z,76.10
2022-09-23T05:48:42.470Z,79.08
2022-09-23T05:51:12.925Z,77.52
2022-09-23T05:53:41.067Z,76.47
2022-09-23T05:56:07.969Z,74.98
2022-09-23T05:58:34.784Z,73.47
2022-09-23T06:01:01.413Z,72.00
2022-09-23T06:03:28.142Z,75.36
2022-09-23T06:05:55.724Z,75.83
2022-09-23T06:08:23.596Z,77.67
2022-09-23T06:10:54.357Z,77.41
2022-09-23T06:13:21.558Z,76.45
2022-09-23T06:15:48.394Z,74.16
2022-09-23T06:18:15.058Z,73.30
2022-09-23T06:20:41.658Z,76.06
2022-09-23T06:23:11.175Z,76.11
2022-09-23T06:25:38.389Z,77.85
2022-09-23T06:28:05.406Z,75.43
2022-09-23T06:30:32.037Z,72.24
2022-09-23T06:32:58.621Z,71.54
2022-09-23T06:35:27.826Z,70.88
2022-09-23T06:37:55.272Z,71.19
2022-09-23T06:40:22.699Z,70.48
2022-09-23T06:43:00.121Z,72.16
2022-09-23T06:45:28.005Z,70.22
2022-09-23T06:47:56.986Z,68.06
2022-09-23T06:50:25.554Z,67.14
2022-09-23T06:52:56.255Z,69.06
2022-09-23T06:55:24.453Z,68.77
2022-09-23T06:57:51.304Z,70.29
2022-09-23T07:00:19.691Z,67.75
2022-09-23T07:02:46.942Z,67.81
2022-09-23T07:05:13.847Z,68.92
2022-09-23T07:07:40.533Z,67.05
2022-09-23T07:10:07.689Z,66.00
2022-09-23T07:12:34.305Z,65.52
2022-09-23T07:15:01.378Z,63.93
2022-09-23T07:17:27.998Z,64.16
2022-09-23T07:19:54.608Z,62.71
2022-09-23T07:22:25.746Z,61.04
2022-09-23T07:24:54.221Z,61.76
2022-09-23T07:27:20.892Z,61.61
2022-09-23T07:29:49.431Z,59.53
2022-09-23T07:32:16.508Z,60.36
2022-09-23T07:34:43.140Z,58.80
2022-09-23T07:37:10.025Z,60.44
2022-09-23T07:39:36.630Z,59.48
2022-09-23T07:42:04.008Z,57.91
2022-09-23T07:44:31.197Z,55.69
2022-09-23T07:46:59.597Z,56.08
2022-09-23T07:49:27.643Z,54.45
2022-09-23T07:51:54.365Z,55.07
2022-09-23T07:54:21.173Z,52.14
2022-09-23T07:56:48.008Z,52.38
2022-09-23T07:59:18.329Z,51.28
2022-09-23T08:01:48.407Z,49.57
2022-09-23T08:04:18.976Z,51.73
2022-09-23T08:06:48.602Z,50.88
2022-09-23T08:09:17.240Z,50.28
2022-09-23T08:11:43.952Z,50.35
2022-09-23T08:14:13.745Z,52.27
2022-09-23T08:16:41.821Z,50.68
2022-09-23T08:19:08.870Z,50.26
2022-09-23T08:21:35.752Z,51.43
2022-09-23T08:24:02.572Z,51.63
2022-09-23T08:26:29.259Z,50.21
2022-09-23T08:28:55.892Z,50.00
2022-09-23T08:31:23.449Z,50.64
2022-09-23T08:33:58.231Z,50.45
2022-09-23T08:36:25.992Z,50.92
2022-09-23T08:38:52.824Z,50.54
2022-09-23T08:41:35.280Z,48.54
2022-09-23T08:44:25.176Z,51.12
2022-09-23T08:47:12.405Z,51.54
2022-09-23T08:49:55.503Z,51.74
2022-09-23T08:52:43.972Z,53.64
2022-09-23T08:55:13.920Z,51.86
2022-09-23T08:58:14.010Z,53.75
2022-09-23T09:00:43.093Z,53.62
2022-09-23T09:03:24.531Z,53.71
2022-09-23T09:05:54.589Z,53.59
2022-09-23T09:08:31.553Z,53.76
2022-09-23T09:10:58.598Z,52.97
2022-09-23T09:13:37.855Z,51.11
2022-09-23T09:16:59.002Z,53.41
2022-09-23T09:19:45.857Z,50.92
2022-09-23T09:22:21.268Z,53.69
2022-09-23T09:24:49.410Z,52.94
2022-09-23T09:27:16.365Z,53.50
2022-09-23T09:29:49.990Z,52.34
2022-09-23T09:32:45.610Z,50.87
2022-09-23T09:35:26.634Z,51.60
2022-09-23T09:37:53.557Z,53.24
2022-09-23T09:40:20.566Z,53.11
2022-09-23T09:42:50.120Z,53.67
2022-09-23T09:45:38.582Z,54.62
2022-09-23T09:48:17.851Z,54.45
2022-09-23T09:50:50.797Z,53.51
2022-09-23T09:53:20.115Z,52.84
2022-09-23T09:56:05.630Z,50.69
2022-09-23T09:58:37.881Z,51.90
2022-09-23T10:01:04.974Z,51.19
2022-09-23T10:03:39.060Z,51.50
2022-09-23T10:06:19.227Z,53.06
2022-09-23T10:09:17.317Z,50.72
2022-09-23T10:12:04.093Z,52.21
2022-09-23T10:14:30.926Z,52.15
2022-09-23T10:17:07.037Z,51.92
2022-09-23T10:19:38.173Z,49.91
2022-09-23T10:22:19.253Z,50.61
2022-09-23T10:24:53.545Z,50.86
2022-09-23T10:27:46.348Z,51.32
2022-09-23T10:30:20.758Z,51.52
2022-09-23T10:32:48.722Z,51.03
2022-09-23T10:35:18.921Z,51.78
2022-09-23T10:37:51.518Z,52.15
2022-09-23T10:40:30.367Z,51.61
2022-09-23T10:43:24.920Z,51.71
2022-09-23T10:45:59.832Z,52.36
2022-09-23T10:48:56.827Z,50.54
2022-09-23T10:51:48.293Z,52.30
2022-09-23T10:54:33.743Z,50.97
2022-09-23T10:57:11.110Z,50.32
2022-09-23T11:00:01.615Z,50.75
2022-09-23T11:02:56.267Z,49.97
2022-09-23T11:05:44.402Z,49.89
2022-09-23T11:08:33.028Z,49.73
2022-09-23T11:11:25.592Z,49.60
2022-09-23T11:14:37.110Z,48.83
2022-09-23T11:17:30.976Z,51.87
2022-09-23T11:20:32.095Z,48.78
2022-09-23T11:23:10.560Z,49.82
2022-09-23T11:25:52.184Z,49.31
2022-09-23T11:28:43.808Z,49.63
2022-09-23T11:31:22.587Z,49.43
2022-09-23T11:34:07.130Z,49.84
2022-09-23T11:36:39.519Z,49.87
2022-09-23T11:39:17.033Z,49.92
2022-09-23T11:41:45.927Z,48.58
2022-09-23T11:44:36.742Z,49.84
2022-09-23T11:47:06.005Z,49.67
2022-09-23T11:49:41.145Z,50.30
2022-09-23T11:52:16.509Z,50.56
2022-09-23T11:54:55.830Z,48.19
2022-09-23T11:57:47.544Z,49.50
2022-09-23T12:00:20.987Z,48.84
2022-09-23T12:03:05.309Z,48.11
2022-09-23T12:05:41.731Z,49.67
2022-09-23T12:08:24.298Z,47.18
2022-09-23T12:11:15.924Z,47.38
2022-09-23T12:14:12.075Z,48.52
2022-09-23T12:17:09.699Z,48.90
2022-09-23T12:20:09.063Z,48.45
2022-09-23T12:22:54.136Z,47.94
2022-09-23T12:25:46.863Z,48.08
2022-09-23T12:28:38.569Z,49.09
2022-09-23T12:31:15.090Z,49.88
2022-09-23T12:33:53.129Z,48.09
2022-09-23T12:36:31.903Z,46.47
2022-09-23T12:39:05.421Z,47.46
2022-09-23T12:41:39.782Z,46.53
2022-09-23T12:44:39.309Z,45.38
2022-09-23T12:47:14.763Z,46.40
2022-09-23T12:49:43.131Z,46.22
2022-09-23T12:52:18.519Z,46.17
2022-09-23T12:54:50.086Z,45.81
2022-09-23T12:57:34.405Z,44.90
2022-09-23T13:00:06.713Z,44.50
2022-09-23T13:02:38.856Z,44.04
2022-09-23T13:05:07.980Z,44.10
2022-09-23T13:07:34.693Z,43.79
2022-09-23T13:10:44.866Z,46.25
2022-09-23T13:13:49.847Z,46.19
2022-09-23T13:16:40.924Z,46.59
2022-09-23T13:19:27.460Z,44.63
2022-09-23T13:22:07.350Z,46.32
2022-09-23T13:24:45.726Z,44.63
2022-09-23T13:27:21.270Z,44.96
2022-09-23T13:30:04.910Z,44.19
2022-09-23T13:32:43.321Z,45.36
2022-09-23T13:35:13.025Z,44.76
2022-09-23T13:37:49.564Z,44.74
2022-09-23T13:40:24.558Z,46.02
2022-09-23T13:43:00.472Z,45.75
2022-09-23T13:45:31.454Z,45.71
2022-09-23T13:48:12.405Z,44.42
2022-09-23T13:50:43.136Z,44.40
2022-09-23T13:53:21.954Z,44.17
2022-09-23T13:56:03.019Z,45.16
2022-09-23T13:58:32.286Z,44.56
2022-09-23T14:00:59.891Z,43.25
2022-09-23T14:03:36.604Z,44.49
2022-09-23T14:06:15.336Z,45.54
2022-09-23T14:08:47.072Z,45.25
2022-09-23T14:11:28.336Z,45.73
2022-09-23T14:13:56.827Z,46.18
2022-09-23T14:16:27.104Z,45.61
2022-09-23T14:19:00.008Z,45.69
2022-09-23T14:21:38.366Z,45.72
2022-09-23T14:24:31.669Z,45.88
2022-09-23T14:27:15.684Z,45.56
2022-09-23T14:29:48.646Z,45.95
2022-09-23T14:32:24.821Z,46.26
2022-09-23T14:35:03.532Z,46.46
2022-09-23T14:37:30.129Z,46.28
2022-09-23T14:39:57.943Z,46.64
2022-09-23T14:42:24.687Z,47.00
2022-09-23T14:44:51.740Z,46.94
2022-09-23T14:47:18.360Z,46.13
2022-09-23T14:49:51.034Z,44.61
2022-09-23T14:52:17.818Z,45.36
2022-09-23T14:54:46.124Z,45.32
2022-09-23T14:57:31.371Z,45.17
2022-09-23T15:00:14.001Z,45.30
2022-09-23T15:02:44.863Z,45.69
2022-09-23T15:05:21.325Z,45.17
2022-09-23T15:07:55.463Z,45.67
2022-09-23T15:10:36.218Z,45.15
2022-09-23T15:13:17.456Z,46.01
2022-09-23T15:15:44.637Z,45.23
2022-09-23T15:18:25.997Z,45.04
2022-09-23T15:20:59.896Z,45.31
2022-09-23T15:23:56.309Z,45.99
2022-09-23T15:26:25.735Z,45.34
2022-09-23T15:28:53.217Z,45.29
2022-09-23T15:31:22.059Z,44.70
2022-09-23T15:33:50.581Z,44.58
2022-09-23T15:36:21.323Z,44.68
2022-09-23T15:38:48.464Z,44.97
2022-09-23T15:41:16.501Z,45.61
2022-09-23T15:43:43.816Z,44.48
2022-09-23T15:46:13.202Z,44.84
2022-09-23T15:48:47.081Z,45.56
2022-09-23T15:51:15.129Z,45.67
2022-09-23T15:53:41.728Z,44.63
2022-09-23T15:56:08.292Z,43.70
2022-09-23T15:58:34.895Z,44.01
2022-09-23T16:01:01.665Z,44.41
2022-09-23T16:03:28.535Z,44.35
2022-09-23T16:05:57.518Z,44.01
2022-09-23T16:08:24.216Z,44.21
2022-09-23T16:10:51.465Z,43.77
2022-09-23T16:13:18.376Z,44.45
2022-09-23T16:15:44.986Z,46.48
2022-09-23T16:18:12.729Z,48.12
2022-09-23T16:20:43.235Z,47.24
2022-09-23T16:23:20.670Z,46.82
2022-09-23T16:25:47.346Z,46.62
2022-09-23T16:28:13.932Z,46.49
2022-09-23T16:30:40.506Z,46.73
2022-09-23T16:33:07.103Z,47.36
2022-09-23T16:35:33.920Z,47.13
2022-09-23T16:38:00.530Z,47.46
2022-09-23T16:40:27.246Z,48.14
2022-09-23T16:42:54.149Z,49.39
2022-09-23T16:45:22.647Z,48.36
2022-09-23T16:47:51.389Z,48.95
2022-09-23T16:50:21.331Z,49.70
2022-09-23T16:52:48.600Z,49.69
2022-09-23T16:55:15.770Z,49.05
2022-09-23T16:57:42.371Z,49.66
2022-09-23T17:00:15.907Z,52.01
2022-09-23T17:02:42.546Z,50.73
2022-09-23T17:05:09.257Z,51.09
2022-09-23T17:07:36.175Z,51.40
2022-09-23T17:10:02.991Z,50.81
2022-09-23T17:12:32.562Z,52.03
2022-09-23T17:14:59.144Z,52.07
2022-09-23T17:17:25.913Z,52.15
2022-09-23T17:19:52.585Z,52.08
2022-09-23T17:22:19.222Z,52.48
2022-09-23T17:24:45.825Z,52.65
2022-09-23T17:27:12.425Z,52.76
2022-09-23T17:29:39.159Z,53.87
2022-09-23T17:32:05.769Z,54.17
2022-09-23T17:34:32.372Z,53.91
2022-09-23T17:36:59.051Z,53.30
2022-09-23T17:39:25.636Z,53.75
2022-09-23T17:41:52.531Z,55.06
2022-09-23T17:44:19.194Z,54.12
2022-09-23T17:46:45.783Z,54.87
2022-09-23T17:49:12.365Z,53.27
2022-09-23T17:51:38.973Z,54.86
2022-09-23T17:54:05.657Z,54.40
2022-09-23T17:56:32.259Z,56.58
2022-09-23T17:59:02.333Z,57.53
2022-09-23T18:01:32.391Z,57.01
2022-09-23T18:04:01.537Z,57.09
2022-09-23T18:06:30.440Z,56.15
2022-09-23T18:08:59.632Z,56.34
2022-09-23T18:11:28.609Z,56.21
2022-09-23T18:13:56.458Z,55.94
2022-09-23T18:16:27.276Z,57.22
2022-09-23T18:18:59.817Z,57.17
2022-09-23T18:21:30.146Z,56.10
2022-09-23T18:24:21.324Z,55.40
2022-09-23T18:26:44.620Z,56.93
2022-09-23T18:29:11.315Z,56.28
2022-09-23T18:31:39.122Z,55.85
2022-09-23T18:34:10.083Z,57.17
2022-09-23T18:36:39.136Z,55.59
2022-09-23T18:39:06.300Z,55.73
2022-09-23T18:41:33.994Z,57.39
2022-09-23T18:44:01.153Z,59.13
2022-09-23T18:46:29.608Z,59.15
2022-09-23T18:48:57.011Z,57.21
2022-09-23T18:51:25.492Z,56.25
2022-09-23T18:53:52.229Z,56.54
2022-09-23T18:56:19.686Z,56.15
2022-09-23T18:58:53.315Z,55.24
2022-09-23T19:01:21.521Z,54.67
2022-09-23T19:03:48.581Z,57.35
2022-09-23T19:06:21.143Z,57.40
2022-09-23T19:08:51.167Z,56.44
2022-09-23T19:11:17.917Z,55.30
2022-09-23T19:13:44.522Z,56.89
2022-09-23T19:16:14.251Z,55.46
2022-09-23T19:18:43.226Z,55.27
2022-09-23T19:21:11.297Z,54.54
2022-09-23T19:23:38.965Z,55.57
2022-09-23T19:26:09.681Z,55.98
2022-09-23T19:28:37.340Z,55.91
2022-09-23T19:31:15.260Z,56.54
2022-09-23T19:33:42.395Z,57.64
2022-09-23T19:36:09.842Z,57.16
2022-09-23T19:38:37.473Z,56.18
2022-09-23T19:41:05.972Z,58.46
2022-09-23T19:43:32.576Z,57.05
2022-09-23T19:46:01.163Z,56.26
2022-09-23T19:48:28.129Z,57.36
2022-09-23T19:50:54.813Z,57.30
2022-09-23T19:53:23.754Z,57.02
2022-09-23T19:55:54.006Z,57.15
2022-09-23T19:58:20.581Z,58.20
2022-09-23T20:00:47.202Z,57.85
2022-09-23T20:03:13.900Z,57.89
2022-09-23T20:05:40.479Z,57.39
2022-09-23T20:08:07.102Z,58.02
2022-09-23T20:10:33.781Z,58.72
2022-09-23T20:13:00.374Z,57.78
2022-09-23T20:15:27.018Z,56.39
2022-09-23T20:17:53.628Z,55.45
2022-09-23T20:20:20.218Z,55.43
2022-09-23T20:22:46.790Z,56.59
2022-09-23T20:25:13.504Z,56.10
2022-09-23T20:27:40.212Z,55.93
2022-09-23T20:30:07.623Z,56.16
2022-09-23T20:32:34.838Z,55.83
2022-09-23T20:35:01.461Z,56.57
2022-09-23T20:37:28.034Z,56.97
2022-09-23T20:39:54.609Z,57.14
2022-09-23T20:42:21.201Z,56.78
2022-09-23T20:44:47.966Z,56.99
2022-09-23T20:47:17.870Z,57.64
2022-09-23T20:49:45.908Z,58.11
2022-09-23T20:52:15.792Z,59.02
2022-09-23T20:54:42.752Z,58.87
2022-09-23T20:57:12.883Z,59.18
2022-09-23T20:59:39.663Z,58.90
2022-09-23T21:02:07.938Z,60.22
2022-09-23T21:04:34.626Z,58.50
2022-09-23T21:07:01.237Z,59.15
2022-09-23T21:09:29.315Z,57.13
2022-09-23T21:11:55.968Z,56.78
2022-09-23T21:14:23.669Z,56.82
2022-09-23T21:16:50.322Z,57.33
2022-09-23T21:19:17.823Z,57.69
2022-09-23T21:21:44.503Z,56.81
2022-09-23T21:24:43.787Z,57.73
2022-09-23T21:26:57.729Z,56.84
2022-09-23T21:29:24.332Z,57.67
2022-09-23T21:31:51.000Z,57.44
2022-09-23T21:34:17.606Z,58.57
2022-09-23T21:36:44.835Z,59.77
2022-09-23T21:39:12.098Z,59.03
2022-09-23T21:41:39.467Z,60.82
2022-09-23T21:44:06.660Z,60.80
2022-09-23T21:46:34.248Z,61.23
2022-09-23T21:49:00.901Z,61.71
2022-09-23T21:51:30.929Z,62.56
2022-09-23T21:53:58.502Z,61.54
2022-09-23T21:56:28.646Z,62.95
2022-09-23T21:58:57.262Z,62.40
2022-09-23T22:01:24.821Z,62.85
2022-09-23T22:03:54.506Z,62.94
2022-09-23T22:06:26.924Z,62.40
2022-09-23T22:08:55.966Z,63.25
2022-09-23T22:11:24.031Z,61.38
2022-09-23T22:13:50.599Z,62.13
2022-09-23T22:16:17.217Z,61.66
2022-09-23T22:18:43.841Z,61.35
2022-09-23T22:21:10.417Z,61.72
2022-09-23T22:23:37.004Z,60.45
2022-09-23T22:26:03.710Z,60.68
2022-09-23T22:28:32.676Z,60.80
2022-09-23T22:30:59.426Z,60.72
2022-09-23T22:33:26.071Z,59.74
2022-09-23T22:36:00.221Z,59.40
2022-09-23T22:38:26.799Z,59.18
2022-09-23T22:40:53.468Z,59.67
2022-09-23T22:43:20.109Z,61.26
2022-09-23T22:45:50.287Z,60.46
2022-09-23T22:48:17.046Z,61.41
2022-09-23T22:50:43.703Z,61.96
2022-09-23T22:53:10.281Z,61.27
2022-09-23T22:55:36.861Z,60.38
2022-09-23T22:58:21.259Z,59.66
2022-09-23T23:00:50.079Z,60.65
2022-09-23T23:03:16.744Z,61.28
2022-09-23T23:05:43.338Z,60.97
2022-09-23T23:08:09.916Z,61.36
2022-09-23T23:10:36.503Z,60.84
2022-09-23T23:13:03.094Z,62.68
2022-09-23T23:15:29.670Z,62.52
2022-09-23T23:17:56.281Z,62.33
2022-09-23T23:20:22.882Z,62.78
2022-09-23T23:22:49.457Z,62.05
2022-09-23T23:25:16.074Z,61.88
2022-09-23T23:27:43.847Z,61.80
2022-09-23T23:30:10.944Z,61.55
2022-09-23T23:32:37.540Z,61.40
2022-09-23T23:35:04.696Z,60.85
2022-09-23T23:37:31.370Z,59.69
2022-09-23T23:39:57.940Z,58.73
2022-09-23T23:42:24.527Z,59.74
2022-09-23T23:44:51.098Z,58.58
2022-09-23T23:47:17.671Z,58.79
2022-09-23T23:49:44.264Z,59.98
2022-09-23T23:52:10.822Z,60.70
2022-09-23T23:54:37.396Z,59.83
2022-09-23T23:57:04.291Z,61.18
2022-09-23T23:59:30.890Z,60.81
